»·PEaware :: N149CD KVCV-KVNY

N149CD :: KVCV-KVNY

FLIGHT INFORMATION

Flight Status: Arrived
Operator: Privately registered:
United States
More flights under this callsign
Pilot: Nathan E. (30132)
Aircraft: CESSNA 172 SKYHAWK
(C172)
More flights by this aircraft type
Origin: KVCV Socal Logistics
United States
Destination: KVNY Van Nuys
United States
More flights between these airports :: More routes between these airports
Route: +V386 UMBER
File this flight plan on PilotEdge
Remarks:
Altitude:
(Current/Filed)
8,000ft
Speed:
(Current/Filed)
110kts
Departed: 18-Oct-20 01:50 PM
Arrived: 18-Oct-20 02:33 PM
Distance/Time
Traveled:
60nm/0:42
Distance/Time
To Go:
Arrived

Flight Plot

Page will automatically refresh every two minutes.

Flight plan parsing failed; only flown route is shown


Map Options




Map Legend


Flown Route
Filed Route
Departure Airport
Arrival Airport
Navaid (VOR, NDB)
Fix

Horizontal Profiles

Position Reports

Time Latitude Longitude Heading Altitude Ground
Speed
18-Oct-20 13:30 34.588332 -117.376340 313 2870ft 0kts
18-Oct-20 13:32 34.588332 -117.376340 313 2870ft 0kts
18-Oct-20 13:32 34.588332 -117.376340 313 2870ft 0kts
18-Oct-20 13:33 34.588332 -117.376340 313 2870ft 0kts
18-Oct-20 13:34 34.588332 -117.376340 313 2870ft 0kts
18-Oct-20 13:35 34.588332 -117.376340 313 2870ft 0kts
18-Oct-20 13:36 34.588332 -117.376340 313 2870ft 0kts
18-Oct-20 13:37 34.588332 -117.376340 313 2870ft 0kts
18-Oct-20 13:38 34.588332 -117.376340 313 2870ft 0kts
18-Oct-20 13:39 34.588332 -117.376340 313 2870ft 0kts
18-Oct-20 13:40 34.588332 -117.376340 313 2870ft 0kts
18-Oct-20 13:41 34.588332 -117.376340 313 2870ft 0kts
18-Oct-20 13:42 34.588351 -117.376363 315 2870ft 1kts
18-Oct-20 13:43 34.590045 -117.376169 44 2868ft 19kts
18-Oct-20 13:44 34.593816 -117.372621 95 2859ft 7kts
18-Oct-20 13:45 34.593420 -117.367968 18 2857ft 13kts
18-Oct-20 13:46 34.598857 -117.366665 10 2844ft 10kts
18-Oct-20 13:47 34.599156 -117.366594 7 2843ft 0kts
18-Oct-20 13:48 34.600071 -117.367084 224 2842ft 18kts
18-Oct-20 13:49 34.586522 -117.383294 224 3291ft 76kts
18-Oct-20 13:50 34.578054 -117.407499 259 4055ft 79kts
18-Oct-20 13:51 34.573840 -117.434473 259 4838ft 80kts
18-Oct-20 13:52 34.570730 -117.461614 278 5585ft 79kts
18-Oct-20 13:53 34.573369 -117.489043 280 6308ft 79kts
18-Oct-20 13:54 34.576136 -117.516490 281 6996ft 79kts
18-Oct-20 13:55 34.578959 -117.544150 281 7654ft 79kts
18-Oct-20 13:56 34.581910 -117.572420 281 8024ft 102kts
18-Oct-20 13:57 34.585728 -117.609189 280 8016ft 109kts
18-Oct-20 13:58 34.589519 -117.646215 280 8011ft 110kts
18-Oct-20 13:59 34.593251 -117.682868 280 8007ft 110kts
18-Oct-20 14:00 34.597012 -117.719948 280 8002ft 110kts
18-Oct-20 14:01 34.600759 -117.757017 280 7996ft 109kts
18-Oct-20 14:02 34.604467 -117.793804 280 7990ft 109kts
18-Oct-20 14:03 34.608151 -117.830470 280 7984ft 109kts
18-Oct-20 14:04 34.611801 -117.866917 280 7982ft 108kts
18-Oct-20 14:05 34.615456 -117.903518 280 7983ft 109kts
18-Oct-20 14:06 34.619089 -117.940014 280 7984ft 109kts
18-Oct-20 14:07 34.622731 -117.976718 280 7985ft 109kts
18-Oct-20 14:08 34.626350 -118.013312 281 7987ft 109kts
18-Oct-20 14:09 34.629954 -118.049851 281 7988ft 109kts
18-Oct-20 14:10 34.623270 -118.085999 254 7990ft 113kts
18-Oct-20 14:11 34.611853 -118.121937 253 7987ft 113kts
18-Oct-20 14:12 34.600175 -118.157572 253 7984ft 113kts
18-Oct-20 14:13 34.588329 -118.192513 251 8073ft 111kts
18-Oct-20 14:14 34.576612 -118.227816 253 8071ft 113kts
18-Oct-20 14:15 34.564988 -118.263229 252 8068ft 113kts
18-Oct-20 14:16 34.553127 -118.298780 252 8065ft 113kts
18-Oct-20 14:17 34.541302 -118.334165 252 8060ft 113kts
18-Oct-20 14:18 34.529478 -118.369492 252 8055ft 113kts
18-Oct-20 14:19 34.517618 -118.404809 253 8034ft 112kts
18-Oct-20 14:20 34.505594 -118.440678 252 7530ft 116kts
18-Oct-20 14:21 34.493357 -118.477190 252 7027ft 117kts
18-Oct-20 14:22 34.481849 -118.514036 221 6524ft 122kts
18-Oct-20 14:23 34.448200 -118.513098 168 6044ft 124kts
18-Oct-20 14:24 34.414054 -118.509236 169 5540ft 122kts
18-Oct-20 14:25 34.379419 -118.505929 176 4677ft 119kts
18-Oct-20 14:26 34.348895 -118.503459 176 3930ft 104kts
18-Oct-20 14:27 34.320705 -118.500800 176 3268ft 100kts
18-Oct-20 14:28 34.293173 -118.498213 175 2632ft 99kts
18-Oct-20 14:29 34.265674 -118.495632 175 2003ft 99kts
18-Oct-20 14:30 34.241736 -118.493376 175 1458ft 79kts
18-Oct-20 14:31 34.223389 -118.491645 175 1047ft 61kts
18-Oct-20 14:32 34.210452 -118.490529 200 806ft 11kts
18-Oct-20 14:33 34.209089 -118.491471 175 806ft 17kts
18-Oct-20 14:34 34.206463 -118.491848 179 806ft 0kts

Navigation Log

Ident Type
Flight plan parsing failed, navigation log unavailable